createdAt,value
2022-12-23T00:01:04.826Z,56.97
2022-12-23T00:03:32.973Z,58.65
2022-12-23T00:06:01.032Z,56.40
2022-12-23T00:08:28.156Z,60.65
2022-12-23T00:10:57.511Z,57.88
2022-12-23T00:13:42.812Z,58.47
2022-12-23T00:16:14.187Z,55.63
2022-12-23T00:18:43.625Z,58.70
2022-12-23T00:21:14.552Z,58.95
2022-12-23T00:23:46.161Z,57.17
2022-12-23T00:26:21.626Z,57.40
2022-12-23T00:28:49.246Z,58.42
2022-12-23T00:31:21.123Z,56.88
2022-12-23T00:33:51.442Z,59.08
2022-12-23T00:36:30.214Z,56.95
2022-12-23T00:39:18.009Z,58.38
2022-12-23T00:42:04.630Z,59.08
2022-12-23T00:44:31.686Z,56.08
2022-12-23T00:46:58.655Z,58.17
2022-12-23T00:49:43.776Z,59.65
2022-12-23T00:52:15.568Z,58.63
2022-12-23T00:54:42.897Z,57.97
2022-12-23T00:57:10.240Z,59.78
2022-12-23T00:59:37.605Z,59.35
2022-12-23T01:02:23.509Z,56.72
2022-12-23T01:05:08.933Z,57.08
2022-12-23T01:07:35.907Z,55.95
2022-12-23T01:10:04.147Z,56.83
2022-12-23T01:12:31.487Z,58.67
2022-12-23T01:14:58.794Z,57.53
2022-12-23T01:17:25.793Z,56.92
2022-12-23T01:19:52.699Z,55.38
2022-12-23T01:22:19.595Z,56.67
2022-12-23T01:24:46.529Z,55.17
2022-12-23T01:27:13.765Z,55.97
2022-12-23T01:29:40.830Z,56.03
2022-12-23T01:32:07.791Z,56.83
2022-12-23T01:34:37.462Z,54.70
2022-12-23T01:37:05.628Z,56.45
2022-12-23T01:39:32.960Z,56.85
2022-12-23T01:42:18.410Z,58.70
2022-12-23T01:44:55.903Z,55.88
2022-12-23T01:47:53.394Z,57.05
2022-12-23T01:50:29.920Z,57.05
2022-12-23T01:53:08.310Z,59.53
2022-12-23T01:56:24.064Z,57.25
2022-12-23T02:01:40.580Z,56.05
2022-12-23T02:04:12.848Z,58.42
2022-12-23T02:07:00.983Z,56.05
2022-12-23T02:09:38.147Z,57.17
2022-12-23T02:12:26.188Z,56.70
2022-12-23T02:15:31.704Z,57.58
2022-12-23T02:18:15.882Z,58.03
2022-12-23T02:21:01.253Z,59.38
2022-12-23T02:24:05.584Z,57.80
2022-12-23T02:26:50.062Z,59.80
2022-12-23T02:29:56.186Z,58.58
2022-12-23T02:33:02.095Z,59.47
2022-12-23T02:36:04.112Z,57.92
2022-12-23T02:38:58.896Z,53.25
2022-12-23T02:41:45.415Z,56.25
2022-12-23T02:44:33.863Z,59.65
2022-12-23T02:47:09.704Z,57.60
2022-12-23T02:49:42.207Z,58.28
2022-12-23T02:52:14.647Z,56.05
2022-12-23T02:54:51.189Z,62.05
2022-12-23T02:57:34.756Z,61.60
2022-12-23T03:00:03.869Z,59.38
2022-12-23T03:02:34.637Z,59.55
2022-12-23T03:05:01.983Z,63.15
2022-12-23T03:07:39.128Z,59.95
2022-12-23T03:10:12.014Z,61.10
2022-12-23T03:13:01.014Z,61.92
2022-12-23T03:15:58.276Z,61.97
2022-12-23T03:18:43.785Z,63.35
2022-12-23T03:21:23.156Z,61.80
2022-12-23T03:23:59.004Z,58.63
2022-12-23T03:26:39.433Z,63.20
2022-12-23T03:29:19.070Z,65.07
2022-12-23T03:31:47.760Z,60.58
2022-12-23T03:34:20.161Z,63.58
2022-12-23T03:36:56.260Z,63.83
2022-12-23T03:39:31.281Z,63.65
2022-12-23T03:42:07.143Z,64.95
2022-12-23T03:44:39.400Z,64.72
2022-12-23T03:47:17.578Z,65.60
2022-12-23T03:49:53.112Z,62.40
2022-12-23T03:52:28.506Z,63.35
2022-12-23T03:54:59.613Z,65.30
2022-12-23T03:57:36.869Z,66.65
2022-12-23T04:00:06.659Z,64.70
2022-12-23T04:03:01.459Z,64.60
2022-12-23T04:05:36.217Z,64.05
2022-12-23T04:08:09.084Z,66.70
2022-12-23T04:10:36.220Z,64.82
2022-12-23T04:13:03.448Z,65.30
2022-12-23T04:15:30.855Z,65.85
2022-12-23T04:17:58.463Z,64.50
2022-12-23T04:20:25.896Z,63.25
2022-12-23T04:22:52.853Z,62.40
2022-12-23T04:25:20.451Z,67.00
2022-12-23T04:27:47.588Z,67.45
2022-12-23T04:30:15.009Z,65.38
2022-12-23T04:32:43.292Z,69.40
2022-12-23T04:35:11.730Z,66.78
2022-12-23T04:37:39.183Z,67.72
2022-12-23T04:40:07.189Z,65.85
2022-12-23T04:42:34.464Z,64.75
2022-12-23T04:45:01.802Z,63.63
2022-12-23T04:47:28.786Z,65.35
2022-12-23T04:49:55.806Z,67.53
2022-12-23T04:52:22.930Z,67.05
2022-12-23T04:54:49.834Z,69.20
2022-12-23T04:57:16.739Z,65.03
2022-12-23T04:59:43.714Z,65.32
2022-12-23T05:02:11.176Z,65.65
2022-12-23T05:04:38.428Z,65.38
2022-12-23T05:07:05.748Z,66.78
2022-12-23T05:09:32.687Z,69.07
2022-12-23T05:11:59.712Z,67.82
2022-12-23T05:14:26.599Z,65.28
2022-12-23T05:16:53.491Z,66.32
2022-12-23T05:19:20.375Z,66.97
2022-12-23T05:21:47.306Z,68.53
2022-12-23T05:24:14.257Z,68.32
2022-12-23T05:26:43.823Z,66.80
2022-12-23T05:29:15.809Z,68.93
2022-12-23T05:31:42.852Z,65.55
2022-12-23T05:34:09.882Z,64.43
2022-12-23T05:36:36.867Z,63.40
2022-12-23T05:39:03.840Z,63.50
2022-12-23T05:41:30.778Z,68.25
2022-12-23T05:43:57.845Z,63.63
2022-12-23T05:46:27.144Z,66.65
2022-12-23T05:48:54.527Z,65.38
2022-12-23T05:51:21.714Z,65.43
2022-12-23T05:53:48.671Z,66.00
2022-12-23T05:56:15.561Z,63.15
2022-12-23T05:58:42.797Z,64.13
2022-12-23T06:01:10.024Z,65.57
2022-12-23T06:03:37.146Z,66.80
2022-12-23T06:06:04.755Z,67.75
2022-12-23T06:08:31.662Z,63.80
2022-12-23T06:10:59.955Z,63.75
2022-12-23T06:13:27.033Z,63.80
2022-12-23T06:15:54.142Z,66.28
2022-12-23T06:18:21.207Z,65.90
2022-12-23T06:20:48.522Z,63.20
2022-12-23T06:23:15.495Z,65.75
2022-12-23T06:25:42.464Z,59.58
2022-12-23T06:28:09.431Z,65.55
2022-12-23T06:30:36.365Z,60.22
2022-12-23T06:33:03.451Z,63.47
2022-12-23T06:35:30.459Z,65.68
2022-12-23T06:37:57.433Z,66.63
2022-12-23T06:40:24.374Z,64.00
2022-12-23T06:42:51.401Z,67.53
2022-12-23T06:45:18.303Z,65.75
2022-12-23T06:47:45.343Z,66.65
2022-12-23T06:50:12.304Z,64.10
2022-12-23T06:52:39.258Z,68.40
2022-12-23T06:55:06.760Z,71.68
2022-12-23T06:57:33.868Z,64.10
2022-12-23T07:00:00.945Z,64.50
2022-12-23T07:02:28.259Z,68.85
2022-12-23T07:04:55.221Z,69.47
2022-12-23T07:07:22.172Z,71.90
2022-12-23T07:09:49.198Z,64.03
2022-12-23T07:12:16.471Z,62.78
2022-12-23T07:14:43.537Z,78.15
2022-12-23T07:17:10.552Z,77.13
2022-12-23T07:19:37.629Z,71.65
2022-12-23T07:22:04.781Z,74.88
2022-12-23T07:24:31.734Z,74.55
2022-12-23T07:26:59.017Z,75.03
2022-12-23T07:29:26.011Z,72.00
2022-12-23T07:31:53.504Z,74.55
2022-12-23T07:34:20.623Z,76.68
2022-12-23T07:36:47.829Z,74.25
2022-12-23T07:39:14.893Z,74.78
2022-12-23T07:41:42.043Z,74.43
2022-12-23T07:44:09.096Z,75.50
2022-12-23T07:46:36.373Z,77.28
2022-12-23T07:49:03.586Z,75.20
2022-12-23T07:51:30.853Z,79.95
2022-12-23T07:53:58.448Z,78.45
2022-12-23T07:56:26.031Z,77.18
2022-12-23T07:58:54.271Z,79.82
2022-12-23T08:01:22.067Z,77.43
2022-12-23T08:03:49.529Z,79.85
2022-12-23T08:06:16.891Z,79.72
2022-12-23T08:08:46.216Z,80.45
2022-12-23T08:11:15.169Z,79.35
2022-12-23T08:13:44.780Z,88.13
2022-12-23T08:16:13.036Z,88.75
2022-12-23T08:18:41.631Z,90.25
2022-12-23T08:21:14.937Z,88.53
2022-12-23T08:23:43.640Z,87.10
2022-12-23T08:26:21.252Z,83.57
2022-12-23T08:28:53.538Z,81.35
2022-12-23T08:31:27.176Z,81.65
2022-12-23T08:33:57.201Z,80.93
2022-12-23T08:36:31.368Z,79.97
2022-12-23T08:41:32.772Z,77.47
2022-12-23T08:44:00.178Z,77.25
2022-12-23T08:46:28.166Z,76.60
2022-12-23T08:48:55.655Z,77.45
2022-12-23T08:51:24.816Z,82.10
2022-12-23T08:54:00.441Z,78.85
2022-12-23T08:56:33.345Z,79.40
2022-12-23T08:59:01.285Z,78.90
2022-12-23T09:01:32.739Z,74.65
2022-12-23T09:04:04.823Z,75.97
2022-12-23T09:06:40.734Z,75.47
2022-12-23T09:09:11.094Z,74.78
2022-12-23T09:11:38.960Z,74.68
2022-12-23T09:14:07.249Z,76.70
2022-12-23T09:16:34.583Z,76.57
2022-12-23T09:19:02.078Z,77.35
2022-12-23T09:21:29.430Z,76.40
2022-12-23T09:23:57.364Z,77.35
2022-12-23T09:26:28.193Z,76.07
2022-12-23T09:28:56.333Z,76.28
2022-12-23T09:31:26.694Z,79.88
2022-12-23T09:33:56.782Z,75.78
2022-12-23T09:36:24.140Z,78.75
2022-12-23T09:38:57.248Z,79.05
2022-12-23T09:42:03.561Z,77.57
2022-12-23T09:44:48.480Z,77.88
2022-12-23T09:47:23.929Z,73.88
2022-12-23T09:50:05.081Z,75.10
2022-12-23T09:53:03.211Z,73.95
2022-12-23T09:56:02.797Z,73.32
2022-12-23T09:59:20.345Z,67.47
2022-12-23T10:02:06.303Z,66.00
2022-12-23T10:04:36.965Z,67.03
2022-12-23T10:07:03.955Z,67.95
2022-12-23T10:09:37.869Z,69.68
2022-12-23T10:12:27.198Z,66.25
2022-12-23T10:14:58.801Z,69.35
2022-12-23T10:17:36.220Z,69.93
2022-12-23T10:20:06.506Z,70.53
2022-12-23T10:22:44.737Z,66.50
2022-12-23T10:25:35.603Z,69.35
2022-12-23T10:28:02.933Z,70.93
2022-12-23T10:30:57.407Z,71.28
2022-12-23T10:33:49.090Z,73.00
2022-12-23T10:36:58.536Z,75.13
2022-12-23T10:39:51.686Z,74.00
2022-12-23T10:42:34.124Z,72.97
2022-12-23T10:45:20.767Z,72.38
2022-12-23T10:48:06.101Z,70.13
2022-12-23T10:50:38.851Z,73.30
2022-12-23T10:53:11.649Z,75.00
2022-12-23T10:55:39.912Z,73.55
2022-12-23T10:58:18.711Z,74.25
2022-12-23T11:00:55.598Z,68.47
2022-12-23T11:03:38.725Z,72.63
2022-12-23T11:06:08.939Z,72.00
2022-12-23T11:08:38.648Z,68.90
2022-12-23T11:11:07.427Z,72.80
2022-12-23T11:13:41.447Z,70.57
2022-12-23T11:16:24.514Z,73.40
2022-12-23T11:18:55.757Z,72.63
2022-12-23T11:21:22.813Z,72.65
2022-12-23T11:24:10.094Z,71.22
2022-12-23T11:26:37.276Z,72.47
2022-12-23T11:29:19.656Z,76.47
2022-12-23T11:31:46.850Z,74.40
2022-12-23T11:34:17.287Z,80.10
2022-12-23T11:36:55.108Z,70.40
2022-12-23T11:39:34.039Z,71.28
2022-12-23T11:42:13.057Z,68.15
2022-12-23T11:44:52.411Z,68.00
2022-12-23T11:47:24.136Z,70.35
2022-12-23T11:49:57.528Z,68.63
2022-12-23T11:52:29.021Z,67.53
2022-12-23T11:55:01.964Z,67.18
2022-12-23T11:57:49.383Z,67.43
2022-12-23T12:00:34.717Z,68.20
2022-12-23T12:03:03.742Z,66.78
2022-12-23T12:05:52.103Z,66.95
2022-12-23T12:08:26.248Z,65.15
2022-12-23T12:11:02.411Z,67.75
2022-12-23T12:13:38.509Z,65.55
2022-12-23T12:16:30.676Z,64.88
2022-12-23T12:19:12.305Z,64.75
2022-12-23T12:21:39.864Z,63.55
2022-12-23T12:24:29.023Z,61.72
2022-12-23T12:27:03.651Z,63.08
2022-12-23T12:29:44.125Z,65.82
2022-12-23T12:32:33.697Z,64.15
2022-12-23T12:35:07.156Z,62.17
2022-12-23T12:37:53.135Z,64.03
2022-12-23T12:40:42.639Z,60.33
2022-12-23T12:43:35.265Z,62.85
2022-12-23T12:46:31.663Z,62.60
2022-12-23T12:49:47.760Z,60.65
2022-12-23T12:52:25.988Z,61.40
2022-12-23T12:55:21.598Z,62.28
2022-12-23T12:57:48.801Z,63.30
2022-12-23T13:00:24.731Z,63.83
2022-12-23T13:03:02.048Z,63.25
2022-12-23T13:09:02.854Z,61.45
2022-12-23T13:11:48.921Z,62.95
2022-12-23T13:18:15.239Z,63.38
2022-12-23T13:23:49.543Z,63.60
2022-12-23T13:26:31.381Z,64.75
2022-12-23T13:29:58.028Z,65.20
2022-12-23T13:32:49.713Z,63.10
2022-12-23T13:35:22.720Z,63.50
2022-12-23T13:38:23.253Z,65.60
2022-12-23T13:41:22.940Z,64.40
2022-12-23T13:43:57.897Z,62.10
2022-12-23T13:46:58.725Z,64.68
2022-12-23T13:49:45.715Z,63.10
2022-12-23T13:52:28.737Z,63.25
2022-12-23T13:55:40.886Z,63.80
2022-12-23T13:58:18.345Z,63.45
2022-12-23T14:00:46.434Z,64.43
2022-12-23T14:03:20.664Z,63.30
2022-12-23T14:05:52.870Z,61.35
2022-12-23T14:08:25.026Z,62.17
2022-12-23T14:11:33.118Z,61.05
2022-12-23T14:14:06.286Z,58.33
2022-12-23T14:17:10.069Z,58.63
2022-12-23T14:20:31.513Z,58.75
2022-12-23T14:26:38.086Z,58.50
2022-12-23T14:29:13.844Z,59.10
2022-12-23T14:31:45.278Z,59.03
2022-12-23T14:34:18.272Z,59.10
2022-12-23T14:37:24.288Z,58.45
2022-12-23T14:39:52.888Z,58.88
2022-12-23T14:42:43.414Z,59.00
2022-12-23T14:45:37.144Z,58.60
2022-12-23T14:48:37.086Z,59.33
2022-12-23T14:51:10.334Z,60.40
2022-12-23T14:56:39.518Z,59.05
2022-12-23T14:59:56.835Z,60.58
2022-12-23T15:02:37.418Z,58.15
2022-12-23T15:05:05.472Z,59.90
2022-12-23T15:07:36.473Z,59.58
2022-12-23T15:10:23.950Z,59.60
2022-12-23T15:12:58.293Z,58.25
2022-12-23T15:15:29.072Z,59.67
2022-12-23T15:18:03.497Z,55.78
2022-12-23T15:20:31.208Z,59.10
2022-12-23T15:23:11.885Z,60.00
2022-12-23T15:25:44.887Z,61.30
2022-12-23T15:28:30.570Z,60.38
2022-12-23T15:30:57.930Z,63.42
2022-12-23T15:36:35.427Z,62.70
2022-12-23T15:39:10.356Z,63.20
2022-12-23T15:41:45.890Z,62.00
2022-12-23T15:44:19.978Z,62.55
2022-12-23T15:49:21.995Z,60.05
2022-12-23T15:52:16.524Z,62.38
2022-12-23T15:55:24.512Z,62.60
2022-12-23T15:57:52.733Z,63.33
2022-12-23T16:00:25.522Z,60.97
2022-12-23T16:03:01.230Z,65.82
2022-12-23T16:05:36.134Z,64.50
2022-12-23T16:08:23.020Z,65.70
2022-12-23T16:11:17.313Z,62.13
2022-12-23T16:14:01.464Z,64.50
2022-12-23T16:16:42.991Z,65.47
2022-12-23T16:19:53.482Z,64.78
2022-12-23T16:22:20.420Z,63.10
2022-12-23T16:24:57.901Z,62.85
2022-12-23T16:27:46.640Z,64.38
2022-12-23T16:30:17.715Z,63.65
2022-12-23T16:32:51.067Z,65.20
2022-12-23T16:35:32.115Z,68.30
2022-12-23T16:38:19.936Z,67.60
2022-12-23T16:40:55.756Z,70.10
2022-12-23T16:43:25.369Z,68.10
2022-12-23T16:45:56.203Z,68.15
2022-12-23T16:48:29.521Z,70.53
2022-12-23T16:50:58.063Z,68.18
2022-12-23T16:53:24.995Z,71.32
2022-12-23T16:55:58.357Z,70.55
2022-12-23T16:58:27.646Z,68.90
2022-12-23T17:00:55.935Z,69.57
2022-12-23T17:03:23.602Z,69.18
2022-12-23T17:05:50.682Z,70.65
2022-12-23T17:08:17.782Z,71.47
2022-12-23T17:10:45.388Z,69.53
2022-12-23T17:13:16.820Z,68.55
2022-12-23T17:15:44.677Z,67.40
2022-12-23T17:18:21.036Z,68.80
2022-12-23T17:20:49.494Z,66.97
2022-12-23T17:23:27.489Z,67.28
2022-12-23T17:25:54.844Z,69.20
2022-12-23T17:28:22.573Z,68.80
2022-12-23T17:30:54.785Z,67.15
2022-12-23T17:33:28.382Z,68.25
2022-12-23T17:35:55.961Z,68.95
2022-12-23T17:38:23.649Z,66.47
2022-12-23T17:40:51.315Z,66.22
2022-12-23T17:43:19.084Z,67.55
2022-12-23T17:45:47.129Z,67.13
2022-12-23T17:48:20.639Z,68.00
2022-12-23T17:50:49.368Z,67.55
2022-12-23T17:53:18.383Z,68.10
2022-12-23T17:55:45.634Z,68.85
2022-12-23T17:58:14.550Z,67.28
2022-12-23T18:00:42.227Z,65.97
2022-12-23T18:03:23.312Z,66.53
2022-12-23T18:05:55.649Z,65.30
2022-12-23T18:08:28.241Z,64.70
2022-12-23T18:10:55.729Z,68.07
2022-12-23T18:13:22.815Z,63.00
2022-12-23T18:15:50.275Z,65.95
2022-12-23T18:18:28.565Z,65.38
2022-12-23T18:21:00.492Z,64.53
2022-12-23T18:23:31.132Z,65.18
2022-12-23T18:25:59.269Z,66.38
2022-12-23T18:28:27.420Z,64.15
2022-12-23T18:30:58.083Z,64.30
2022-12-23T18:33:28.775Z,62.95
2022-12-23T18:35:56.276Z,64.50
2022-12-23T18:38:23.277Z,61.90
2022-12-23T18:40:54.678Z,65.25
2022-12-23T18:43:24.951Z,64.20
2022-12-23T18:45:53.773Z,64.80
2022-12-23T18:48:21.505Z,65.65
2022-12-23T18:50:48.922Z,63.35
2022-12-23T18:53:24.565Z,63.10
2022-12-23T18:55:53.858Z,62.72
2022-12-23T18:58:21.705Z,65.18
2022-12-23T19:00:50.965Z,63.95
2022-12-23T19:03:23.380Z,63.80
2022-12-23T19:05:53.327Z,61.03
2022-12-23T19:08:26.785Z,64.22
2022-12-23T19:10:56.007Z,62.45
2022-12-23T19:13:23.485Z,61.33
2022-12-23T19:15:51.016Z,59.17
2022-12-23T19:18:21.094Z,60.90
2022-12-23T19:20:51.887Z,61.58
2022-12-23T19:23:19.037Z,62.95
2022-12-23T19:25:54.361Z,61.00
2022-12-23T19:28:22.860Z,63.33
2022-12-23T19:30:50.575Z,62.03
2022-12-23T19:33:17.736Z,63.45
2022-12-23T19:35:44.869Z,61.83
2022-12-23T19:38:12.459Z,64.70
2022-12-23T19:40:40.640Z,61.97
2022-12-23T19:43:08.122Z,63.28
2022-12-23T19:45:35.105Z,65.13
2022-12-23T19:48:02.119Z,63.45
2022-12-23T19:50:29.196Z,64.05
2022-12-23T19:52:56.677Z,63.22
2022-12-23T19:55:24.508Z,63.15
2022-12-23T19:57:52.272Z,62.72
2022-12-23T20:00:19.414Z,62.80
2022-12-23T20:02:46.785Z,63.90
2022-12-23T20:05:14.166Z,67.28
2022-12-23T20:07:41.248Z,66.00
2022-12-23T20:10:08.964Z,68.60
2022-12-23T20:12:35.918Z,68.32
2022-12-23T20:15:03.107Z,69.75
2022-12-23T20:17:30.125Z,66.93
2022-12-23T20:19:57.393Z,71.97
2022-12-23T20:22:24.360Z,66.00
2022-12-23T20:24:51.261Z,71.97
2022-12-23T20:27:22.670Z,73.10
2022-12-23T20:29:53.129Z,70.55
2022-12-23T20:32:20.039Z,67.65
2022-12-23T20:34:49.024Z,67.72
2022-12-23T20:37:16.270Z,69.03
2022-12-23T20:39:43.267Z,70.82
2022-12-23T20:42:10.358Z,69.22
2022-12-23T20:44:38.100Z,69.97
2022-12-23T20:47:06.334Z,68.60
2022-12-23T20:49:33.891Z,69.75
2022-12-23T20:52:01.464Z,69.22
2022-12-23T20:54:33.077Z,70.22
2022-12-23T20:57:04.045Z,71.10
2022-12-23T20:59:31.365Z,70.30
2022-12-23T21:01:59.326Z,72.40
2022-12-23T21:04:26.721Z,70.80
2022-12-23T21:06:54.666Z,73.68
2022-12-23T21:09:21.847Z,70.05
2022-12-23T21:11:49.909Z,70.63
2022-12-23T21:14:17.233Z,70.22
2022-12-23T21:16:44.487Z,69.45
2022-12-23T21:19:24.292Z,69.80
2022-12-23T21:21:52.557Z,73.70
2022-12-23T21:24:21.217Z,72.28
2022-12-23T21:26:56.560Z,72.00
2022-12-23T21:29:24.607Z,74.72
2022-12-23T21:31:51.679Z,74.75
2022-12-23T21:34:18.742Z,76.13
2022-12-23T21:36:45.757Z,75.85
2022-12-23T21:39:18.331Z,75.56
2022-12-23T21:41:46.028Z,72.47
2022-12-23T21:44:16.445Z,74.60
2022-12-23T21:46:43.627Z,73.55
2022-12-23T21:49:11.464Z,75.43
2022-12-23T21:51:41.321Z,73.85
2022-12-23T21:54:10.929Z,73.75
2022-12-23T21:56:39.268Z,75.60
2022-12-23T21:59:14.138Z,73.80
2022-12-23T22:01:42.742Z,67.82
2022-12-23T22:04:10.012Z,75.80
2022-12-23T22:06:41.401Z,77.20
2022-12-23T22:09:10.002Z,77.07
2022-12-23T22:11:38.374Z,78.35
2022-12-23T22:14:08.652Z,79.30
2022-12-23T22:16:36.374Z,77.13
2022-12-23T22:19:06.354Z,77.15
2022-12-23T22:21:36.400Z,77.03
2022-12-23T22:24:03.690Z,74.43
2022-12-23T22:26:33.023Z,79.68
2022-12-23T22:29:03.301Z,77.13
2022-12-23T22:31:43.598Z,74.90
2022-12-23T22:34:21.305Z,78.20
2022-12-23T22:36:49.582Z,78.22
2022-12-23T22:39:21.472Z,77.00
2022-12-23T22:41:53.151Z,78.78
2022-12-23T22:44:20.967Z,78.15
2022-12-23T22:46:48.390Z,79.00
2022-12-23T22:49:16.459Z,78.63
2022-12-23T22:51:44.001Z,81.22
2022-12-23T22:54:11.251Z,79.78
2022-12-23T22:56:38.242Z,82.28
2022-12-23T22:59:05.644Z,80.50
2022-12-23T23:01:35.988Z,76.57
2022-12-23T23:04:05.062Z,77.95
2022-12-23T23:06:37.636Z,84.25
2022-12-23T23:09:12.896Z,77.47
2022-12-23T23:11:40.928Z,78.90
2022-12-23T23:14:07.931Z,78.90
2022-12-23T23:16:34.970Z,78.80
2022-12-23T23:19:02.339Z,79.03
2022-12-23T23:21:29.580Z,78.63
2022-12-23T23:23:56.534Z,74.78
2022-12-23T23:26:27.225Z,81.47
2022-12-23T23:28:55.609Z,79.35
2022-12-23T23:34:11.758Z,78.15
2022-12-23T23:36:38.959Z,79.75
2022-12-23T23:39:06.049Z,77.10
2022-12-23T23:44:08.581Z,75.70
2022-12-23T23:46:35.918Z,74.35
2022-12-23T23:49:03.414Z,74.53
2022-12-23T23:51:30.596Z,76.38
2022-12-23T23:53:57.667Z,80.60
2022-12-23T23:56:26.244Z,74.93
2022-12-23T23:58:55.202Z,81.07
